الصفحة الرئيسية
METAR-TAF:

METAR-TAF

مطار :

مايسور, الهند

دائرة عرض: 12-13-48N, خط طول: 76-39-21E, ارتفاع: 715 متر

مراقبة الطقس الحالي

تاريخ ووقت الإصدار 6ساعات و 28 دقيقة قبل الساعة 15:00UTC
ريح 7 عقدة من الجنوب الغربي
درجة الحرارة 23°درجة مئوية
الرطوبة 89%
ضغط 1011 hPa
الرؤية: 6000 متر
غيوم متفرقة على ارتفاع 1000 قدم
غيوم متفرقة على ارتفاع 8000 قدم

METAR: VOMY 021500Z 22007KT 6000 SCT010 SCT080 23/21 Q1011

زمن: 02:58 (21:28 UTC)

توقعات

تاريخ ووقت الإصدار 13ساعات و 28 دقيقة قبل الساعة 08:00UTC
التوقعات صالحة من02 الساعة 09 UTC إلى 02 الساعة 18 UTC
ريح 10 عقدة من الغرب
الرؤية: 6000 متر
غيوم متفرقة على ارتفاع 1000 قدم
غيوم متفرقة على ارتفاع 2000 قدم
مؤقت
من 02 الساعة 09 UTC إلى 02 الساعة 15 UTC
الرؤية: 3000 متر
غيوم متفرقة على ارتفاع 800 قدم
غيوم متفرقة على ارتفاع 1200 قدم
غيوم قليلة على ارتفاع 2500 قدم, مزنة ركامية.
غيوم مفككة على ارتفاع 8000 قدم
عاصفة رعدية, مطر, مطر

TAF: VOMY 020800Z 0209/0218 27010KT 6000 SCT010 SCT020 TEMPO 0209/0215 3000 TSRA RA SCT008 SCT012 FEW025CB BKN080

أرصاد الطقس والتوقعات من أكثر من 4000 مطار (تقارير الطقس للمطار METAR والتنبؤ بالطقس بالمطارTAF).

المحطات المتاحة هي النقط الصفراء والحمراء على الخريطة.

حرك المؤشر فوق النقطة لمعرفة اسم المحطة.

ثم انقر لمعرفة أرصاد وتوقعات الطقس.

لتغيير الخارطة: اضغط على الأزرار الخضراء مع رمز الصليب الأسود للتكبير. على الزر الأخضر مع شرطة للتصغير، أو على الأسهم الخضراء للخرائط المجاورة.


METAR-TAF: